Aérodrome :
LOGIN :

S'inscrire | Disclaimer

   EN    FR    IT 

 










Légende :    VFR   VFR Marginal   IFR   IFR Intensif   IFR Très Intensif
Visi : 
Plafond : 
>= 8 km
>= 3000ft
5 à 8 km
1000 à 3000 ft
1500m à 5 km
500 à 1000 ft
800 à 1500m
200 à 500 ft
< 800m
< 200 ft
Symboles :   Orages  Brouillard  Fortes neiges  Fortes précipitations  Vent > 20 kt
SIGMETs :   Divers  Orages  Givrage  Turbulence  Onde Orograph.  Cendres Volcan.







- Altitude de l'aérodrome : 506 ft
- Code IATA : GOT


ESGG - Landvetter

DERNIER METAR :
  • 171920Z 01010KT 9999 BKN011 M05/M07 Q1000 R03/29//95

METARs EXPIRÉS :
  • 171850Z 01009KT 9999 BKN013 M05/M08 Q0999 R03/29//95
  • 171820Z 36010KT 9999 BKN015 M06/M08 Q0998 R03/29//95
  • 171750Z 35010KT 9999 BKN017 M06/M08 Q0998 R03/29//95
  • 171720Z 35009KT 9999 BKN017 M06/M09 Q0997 R03/29//95
  • 171650Z 01010KT 9999 OVC019 M06/M09 Q0996 R03/29//95
  • 171620Z 36009KT 9999 SCT021 M06/M09 Q0996 R03/29//95

TAF AMD TAF ESGG
Valide du 17 à 18h jusqu'au 18 à 18h UTC


171858Z 1718/1818 36008KT 9999 BKN012
BECMG 1719/1721 NSC
BECMG 1808/1810 29010KT
Pas de NOTAMs connus pour ce terrain.



MET'MAP, la Météo Aéronautique d'un coup d'oeil ! - Copyright ORBIFLY Décembre 2007 - Disclaimer

ORBIFLY MET'MAP TEAM :

Programmation & Développement : Alexandra Zaïnal
Conception & Développement : Baudouin d'Aumeries
Co-Programmation & Développement : Marc-Olivier Méhu
Soutien technique & logistique : Manuel Goepfert

Contact : metmap@orbifly.com




SOURCES & CREDITS :

   NOAA